Latest Weather Observations for Cooma Airport

IDN60801

Issued at 10:32 am EDT Monday 27 February 2017 (issued every 30 minutes, with the page automatically refreshed every 10 minutes)

About weather observations | Map of weather stations | Latest weather observations for NSW | Other Formats
Station Details ID: 070217 Name: COOMA AIRPORT AWS Lat: -36.29 Lon: 148.97 Height: 930.0 m
Data from the previous 72 hours. | See also: Recent months at Cooma Airport
Date/Time
EDT
Temp
°C
App
Temp
°C
Dew
Point
°C
Rel
Hum
%
Delta-T
°C
Wind Press
QNH
hPa
Press
MSL
hPa
Rain since
9am
mm
Dir  Spd
km/h
Gust
km/h
Spd
kts
Gust
kts
27/10:30am 17.9 15.3 11.9 68 3.4 NE 17 26 9 14 1028.1 1024.4 0.0
27/10:04am 16.3 14.2 11.2 72 2.9 NE 13 19 7 10 1028.4 1024.6 0.0
27/10:00am 16.3 14.4 11.9 75 2.5 NE 13 17 7 9 1028.4 1024.6 0.0
27/09:30am 14.9 13.7 11.7 81 1.8 NE 9 13 5 7 1028.4 1024.6 0.0
27/09:00am 13.3 13.8 11.5 89 1.0 CALM 0 0 0 0 1028.1 1024.4 0.0
27/08:30am 11.7 11.7 11.2 97 0.3 NE 2 7 1 4 1028.1 1024.4 0.0
27/08:00am 11.1 11.4 10.9 99 0.1 CALM 0 0 0 0 1027.7 1023.9 0.0
27/07:30am 10.1 10.2 10.0 99 0.1 CALM 0 0 0 0 1027.6 1023.8 0.0
27/07:21am 10.2 10.3 10.1 99 0.1 CALM 0 0 0 0 1027.5 1023.7 0.0
27/07:00am 10.0 10.0 9.9 99 0.1 CALM 0 0 0 0 1027.2 1023.4 0.0
27/06:38am 10.2 10.2 9.9 98 0.2 CALM 0 0 0 0 1027.1 1023.3 0.0
27/06:30am 10.1 10.1 9.8 98 0.2 CALM 0 0 0 0 1026.9 1023.1 0.0
27/06:00am 9.5 9.3 9.0 97 0.3 CALM 0 0 0 0 1026.6 1022.8 0.0
27/05:30am 8.8 8.5 8.7 99 0.1 CALM 0 0 0 0 1026.4 1022.6 0.0
27/05:00am 8.1 7.6 8.0 99 0.0 CALM 0 0 0 0 1026.2 1022.4 0.0
27/04:30am 6.9 6.2 6.8 99 0.0 CALM 0 0 0 0 1026.4 1022.6 0.0
27/04:00am 5.3 4.2 5.2 99 0.0 CALM 0 0 0 0 1026.5 1022.7 0.0
27/03:30am 4.8 3.6 4.7 99 0.0 CALM 0 0 0 0 1026.7 1022.9 0.0
27/03:00am 4.6 3.4 4.5 99 0.0 CALM 0 0 0 0 1026.9 1023.1 0.0
27/02:53am 4.0 2.7 3.9 99 0.0 CALM 0 0 0 0 1026.9 1023.1 0.0
27/02:41am 4.9 3.7 4.8 99 0.0 CALM 0 0 0 0 1026.9 1023.1 0.0
27/02:30am 4.2 2.9 3.9 98 0.1 CALM 0 0 0 0 1027.1 1023.3 0.0
27/02:18am 4.0 2.6 3.7 98 0.1 CALM 0 0 0 0 1027.1 1023.3 0.0
27/02:00am 4.3 2.9 3.6 95 0.3 CALM 0 0 0 0 1027.1 1023.3 0.0
27/01:30am 5.6 4.6 5.5 99 0.0 CALM 0 0 0 0 1027.2 1023.4 0.0
27/01:00am 5.7 4.6 5.3 97 0.2 CALM 0 0 0 0 1027.2 1023.4 0.0
27/12:30am 6.6 4.5 6.5 99 0.0 NNE 7 9 4 5 1027.3 1023.5 0.0
27/12:00am 6.7 3.7 6.1 96 0.3 NNE 11 11 6 6 1027.3 1023.5 0.0
 
Date/Time
EDT
Temp
°C
App
Temp
°C
Dew
Point
°C
Rel
Hum
%
Delta-T
°C
Wind Press
QNH
hPa
Press
MSL
hPa
Rain since
9am
mm
Dir  Spd
km/h
Gust
km/h
Spd
kts
Gust
kts
26/11:30pm 7.8 4.6 6.9 94 0.4 NNE 13 15 7 8 1027.3 1023.5 0.0
26/11:00pm 9.0 5.1 7.3 89 0.8 NNE 17 19 9 10 1027.4 1023.6 0.0
26/10:30pm 9.5 5.7 7.4 87 1.1 NNE 17 19 9 10 1027.4 1023.6 0.0
26/10:00pm 9.8 6.3 7.4 85 1.2 NNE 15 17 8 9 1027.2 1023.4 0.0
26/09:30pm 10.3 6.5 7.4 82 1.5 NE 17 19 9 10 1027.1 1023.3 0.0
26/09:00pm 11.7 7.6 8.0 78 1.9 NE 19 24 10 13 1026.5 1022.7 0.0
26/08:30pm 12.6 8.3 7.9 73 2.4 NE 20 26 11 14 1026.0 1022.1 0.0
26/08:00pm 13.8 8.8 8.0 68 3.0 NE 24 30 13 16 1025.5 1021.7 0.0
26/07:30pm 15.2 9.6 7.3 59 4.1 NE 26 32 14 17 1025.1 1021.2 0.0
26/07:00pm 16.4 10.5 7.3 55 4.7 ENE 28 35 15 19 1024.8 1020.9 0.0
26/06:30pm 17.9 12.3 7.3 50 5.6 ENE 26 39 14 21 1024.4 1020.6 0.0
26/06:00pm 18.8 14.3 6.9 46 6.2 ENE 20 30 11 16 1024.3 1020.5 0.0
26/05:30pm 19.3 15.0 7.1 45 6.5 ENE 19 37 10 20 1024.1 1020.2 0.0
26/05:00pm 19.5 15.6 7.3 45 6.5 ENE 17 28 9 15 1023.9 1020.0 0.0
26/04:30pm 20.1 17.3 7.1 43 6.9 ENE 11 20 6 11 1024.0 1020.1 0.0
26/04:00pm 19.5 15.3 7.3 45 6.5 E 19 28 10 15 1024.1 1020.2 0.0
26/03:30pm 19.0 15.5 7.4 47 6.2 NE 15 20 8 11 1024.5 1020.7 0.0
26/03:00pm 18.8 16.5 7.3 47 6.1 NNE 9 20 5 11 1024.6 1020.8 0.0
26/02:30pm 18.6 16.4 8.0 50 5.7 NW 9 15 5 8 1025.0 1021.1 0.0
26/02:00pm 17.5 15.8 8.4 55 4.9 NE 7 19 4 10 1025.4 1021.6 0.0
26/01:30pm 16.4 14.1 7.6 56 4.6 E 9 17 5 9 1025.6 1021.8 0.0
26/01:00pm 15.6 13.0 7.6 59 4.2 ENE 11 17 6 9 1025.7 1021.9 0.0
26/12:30pm 15.2 12.7 8.0 62 3.8 NE 11 19 6 10 1026.1 1022.2 0.0
26/12:00pm 14.6 10.8 7.6 63 3.6 ENE 17 26 9 14 1026.5 1022.7 0.0
26/11:30am 14.6 11.6 7.9 64 3.5 ENE 13 20 7 11 1026.6 1022.8 0.0
26/11:00am 13.8 10.4 7.8 67 3.1 NE 15 20 8 11 1026.7 1022.9 0.0
26/10:30am 13.3 9.5 7.5 68 3.0 NE 17 22 9 12 1026.6 1022.8 0.0
26/10:00am 13.8 10.4 7.8 67 3.1 NE 15 20 8 11 1026.6 1022.8 0.0
26/09:30am 12.6 9.3 7.9 73 2.4 ENE 15 20 8 11 1026.5 1022.7 0.0
26/09:14am 12.3 9.0 8.2 76 2.1 ENE 15 19 8 10 1026.4 1022.6 0.0
26/09:00am 11.9 9.0 8.2 78 1.9 ENE 13 17 7 9 1026.5 1022.7 0.0
26/08:59am 11.9 9.4 8.4 79 1.8 ENE 11 17 6 9 1026.5 1022.7 0.0
26/08:38am 10.8 9.7 10.0 95 0.4 NE 6 11 3 6 1026.3 1022.5 0.0
26/08:30am 10.6 9.3 10.1 97 0.3 NE 7 9 4 5 1026.1 1022.2 0.0
26/08:18am 10.5 9.3 10.3 99 0.1 NNE 7 11 4 6 1026.0 1022.1 0.0
26/08:00am 10.0 8.6 9.7 98 0.2 NNE 7 9 4 5 1026.0 1022.1 0.0
26/07:30am 10.4 8.8 8.8 90 0.8 ENE 7 9 4 5 1025.6 1021.8 0.0
26/07:29am 10.4 8.8 8.8 90 0.8 ENE 7 9 4 5 1025.6 1021.8 0.0
26/07:01am 10.6 10.0 7.5 81 1.6 CALM 0 0 0 0 1025.2 1021.4 0.0
26/07:00am 10.7 10.1 7.6 81 1.6 CALM 0 0 0 0 1025.1 1021.2 0.0
26/06:30am 10.5 10.0 7.7 83 1.4 CALM 0 0 0 0 1024.9 1021.0 0.0
26/06:00am 9.9 9.2 6.8 81 1.5 CALM 0 2 0 1 1024.6 1020.8 0.0
26/05:30am 10.8 8.8 7.1 78 1.9 NE 7 9 4 5 1024.4 1020.6 0.0
26/05:00am 11.1 9.2 7.4 78 1.9 ENE 7 9 4 5 1024.4 1020.6 0.0
26/04:30am 11.0 8.3 7.5 79 1.8 ENE 11 15 6 8 1024.4 1020.6 0.0
26/04:00am 11.0 8.0 7.5 79 1.8 E 13 15 7 8 1024.4 1020.6 0.0
26/03:33am 11.1 9.0 8.1 82 1.5 E 9 13 5 7 1024.4 1020.6 0.0
26/03:30am 11.1 9.0 8.1 82 1.5 ENE 9 13 5 7 1024.5 1020.7 0.0
26/03:00am 11.2 8.0 8.4 83 1.4 E 15 19 8 10 1024.4 1020.6 0.0
26/02:30am 11.2 8.4 8.6 84 1.4 E 13 17 7 9 1024.6 1020.8 0.0
26/02:00am 11.2 7.6 8.2 82 1.5 E 17 24 9 13 1024.8 1020.9 0.0
26/01:30am 11.5 8.3 8.5 82 1.6 E 15 22 8 12 1025.1 1021.2 0.0
26/01:00am 12.0 8.0 9.0 82 1.6 E 20 26 11 14 1025.2 1021.4 0.0
26/12:32am 12.1 8.6 8.9 81 1.7 E 17 26 9 14 1025.2 1021.4 0.0
26/12:30am 12.1 8.6 8.9 81 1.7 E 17 26 9 14 1025.2 1021.4 0.0
26/12:10am 12.2 8.4 8.9 80 1.7 E 19 22 10 12 1025.3 1021.5 0.0
26/12:00am 12.5 8.7 9.0 79 1.8 ENE 19 24 10 13 1025.2 1021.4 0.0
 
Date/Time
EDT
Temp
°C
App
Temp
°C
Dew
Point
°C
Rel
Hum
%
Delta-T
°C
Wind Press
QNH
hPa
Press
MSL
hPa
Rain since
9am
mm
Dir  Spd
km/h
Gust
km/h
Spd
kts
Gust
kts
25/11:30pm 12.8 9.1 9.6 81 1.7 ENE 19 24 10 13 1025.1 1021.2 0.0
25/11:00pm 13.2 10.5 10.4 83 1.5 NE 15 19 8 10 1025.2 1021.4 0.0
25/10:30pm 13.2 10.1 10.2 82 1.6 NE 17 24 9 13 1025.2 1021.4 0.0
25/10:21pm 13.3 10.6 10.3 82 1.6 NE 15 20 8 11 1025.3 1021.5 0.0
25/10:10pm 13.3 10.5 10.1 81 1.7 NE 15 19 8 10 1025.2 1021.4 0.0
25/10:00pm 13.3 10.9 10.1 81 1.7 NE 13 20 7 11 1025.2 1021.4 0.0
25/09:30pm 13.4 10.7 10.4 82 1.6 NNE 15 20 8 11 1025.0 1021.1 0.0
25/09:00pm 13.5 10.5 10.5 82 1.6 NNE 17 22 9 12 1024.5 1020.7 0.0
25/08:44pm 13.5 10.0 10.3 81 1.7 NNE 19 20 10 11 1024.2 1020.4 0.0
25/08:30pm 13.6 10.5 10.2 80 1.9 NNE 17 20 9 11 1024.0 1020.1 0.0
25/08:00pm 14.0 9.5 10.0 77 2.2 NE 24 28 13 15 1023.7 1019.8 0.0
25/07:30pm 14.1 9.9 9.9 76 2.3 ENE 22 28 12 15 1023.4 1019.6 0.0
25/07:00pm 14.6 10.1 10.0 74 2.5 NE 24 30 13 16 1023.3 1019.5 0.0
25/06:30pm 15.1 10.5 9.5 69 3.0 NE 24 32 13 17 1023.1 1019.2 0.0
25/06:00pm 15.7 11.4 9.4 66 3.4 NE 22 30 12 16 1023.0 1019.1 0.0
25/05:30pm 16.0 12.0 9.2 64 3.7 ENE 20 28 11 15 1022.8 1018.9 0.0
25/05:00pm 16.3 12.0 9.5 64 3.7 ENE 22 30 12 16 1022.9 1019.0 0.0
25/04:30pm 16.5 12.2 9.4 63 3.9 ENE 22 30 12 16 1023.0 1019.1 0.0
25/04:00pm 16.4 12.4 8.9 61 4.0 ENE 20 28 11 15 1022.9 1019.0 0.0
25/03:30pm 16.8 13.9 8.0 56 4.7 NE 13 22 7 12 1023.2 1019.4 0.0
25/03:00pm 19.3 16.2 10.3 56 5.0 NNE 17 26 9 14 1023.2 1019.4 0.0
25/02:30pm 17.3 14.3 7.6 53 5.1 E 13 26 7 14 1023.7 1019.8 0.0
25/02:00pm 16.7 13.6 7.4 54 4.9 ENE 13 22 7 12 1024.1 1020.2 0.0
25/01:30pm 15.8 12.4 7.6 58 4.3 E 15 20 8 11 1024.2 1020.4 0.0
25/01:00pm 15.6 13.3 7.4 58 4.3 SW 9 15 5 8 1024.4 1020.6 0.0
25/12:30pm 14.8 13.0 8.1 64 3.5 SW 7 15 4 8 1024.6 1020.8 0.0
25/12:00pm 13.9 11.2 7.4 65 3.3 SSW 11 17 6 9 1024.8 1020.9 0.0
25/11:30am 13.6 11.0 7.6 67 3.1 S 11 19 6 10 1025.0 1021.1 0.0
25/11:00am 13.0 10.8 7.7 70 2.7 S 9 15 5 8 1025.2 1021.4 0.0
25/10:30am 12.1 9.7 7.2 72 2.5 S 9 15 5 8 1025.1 1021.2 0.0
25/10:01am 11.5 9.1 7.0 74 2.3 SSW 9 17 5 9 1025.1 1021.2 0.0
25/10:00am 11.7 9.4 7.4 75 2.2 SSW 9 17 5 9 1025.1 1021.2 0.0
25/09:30am 10.8 6.9 7.3 79 1.8 S 17 20 9 11 1025.3 1021.5 0.0
25/09:00am 10.5 7.0 7.4 81 1.6 S 15 19 8 10 1025.0 1021.1 0.2
25/08:30am 9.9 5.7 7.5 85 1.2 S 19 20 10 11 1024.9 1021.0 0.2
25/08:00am 9.8 5.4 7.4 85 1.2 S 20 26 11 14 1024.8 1020.9 0.2
25/07:30am 9.6 5.2 7.4 86 1.1 S 20 28 11 15 1024.3 1020.5 0.2
25/07:00am 9.7 5.3 7.3 85 1.2 S 20 28 11 15 1024.2 1020.4 0.2
25/06:30am 9.6 5.3 7.0 84 1.3 S 19 24 10 13 1023.7 1019.8 0.2
25/06:00am 9.6 5.2 7.2 85 1.2 S 20 26 11 14 1023.6 1019.7 0.2
25/05:30am 10.0 5.8 7.3 83 1.4 S 19 22 10 12 1023.3 1019.5 0.2
25/05:00am 10.3 5.9 7.2 81 1.5 SSW 20 28 11 15 1023.0 1019.1 0.2
25/04:30am 10.5 6.1 7.6 82 1.5 S 20 24 11 13 1023.0 1019.1 0.2
25/04:00am 10.8 6.7 8.0 83 1.4 S 19 24 10 13 1023.0 1019.1 0.2
25/03:30am 11.2 7.5 7.9 80 1.7 S 17 20 9 11 1023.1 1019.2 0.2
25/03:00am 11.5 7.4 8.0 79 1.8 S 19 22 10 12 1023.2 1019.4 0.2
25/02:30am 11.8 8.2 8.5 80 1.7 S 17 22 9 12 1023.2 1019.4 0.2
25/02:00am 11.9 8.5 9.1 83 1.5 S 17 20 9 11 1023.4 1019.6 0.2
25/01:49am 11.9 8.5 9.3 84 1.4 SSW 17 20 9 11 1023.6 1019.7 0.2
25/01:32am 12.1 8.4 9.5 84 1.4 SSW 19 20 10 11 1023.6 1019.7 0.2
25/01:30am 12.1 8.4 9.5 84 1.4 SSW 19 20 10 11 1023.6 1019.7 0.2
25/01:00am 11.9 8.9 9.3 84 1.4 S 15 17 8 9 1024.1 1020.2 0.2
25/12:30am 11.9 9.0 9.5 85 1.3 S 15 17 8 9 1024.3 1020.5 0.2
25/12:00am 12.3 9.2 10.2 87 1.1 SSW 17 20 9 11 1024.6 1020.8 0.2
 
Date/Time
EDT
Temp
°C
App
Temp
°C
Dew
Point
°C
Rel
Hum
%
Delta-T
°C
Wind Press
QNH
hPa
Press
MSL
hPa
Rain since
9am
mm
Dir  Spd
km/h
Gust
km/h
Spd
kts
Gust
kts
24/11:30pm 12.1 8.7 10.7 91 0.8 SSW 19 22 10 12 1024.8 1020.9 0.2
24/11:00pm 12.4 9.0 10.5 88 1.0 SSW 19 22 10 12 1025.1 1021.2 0.2
24/10:30pm 12.7 9.0 10.1 84 1.4 S 20 24 11 13 1025.1 1021.2 0.2
24/10:00pm 12.8 8.7 10.2 84 1.4 S 22 30 12 16 1025.1 1021.2 0.2
24/09:30pm 13.1 9.3 11.0 87 1.2 S 22 28 12 15 1025.1 1021.2 0.2
24/09:00pm 14.0 9.8 11.2 83 1.6 SSE 24 32 13 17 1024.6 1020.8 0.2
24/08:30pm 14.5 9.4 11.8 84 1.5 S 30 37 16 20 1024.3 1020.5 0.2
24/08:20pm 14.6 9.9 11.9 84 1.5 S 28 37 15 20 1024.1 1020.2 0.2
24/08:00pm 15.2 11.3 12.0 81 1.8 S 24 33 13 18 1023.7 1019.8 0.2
24/07:30pm 16.9 14.4 13.4 80 2.1 ESE 19 24 10 13 1023.3 1019.5 0.2
24/07:00pm 17.4 14.8 13.9 80 2.1 ESE 20 28 11 15 1022.8 1018.9 0.2
24/06:30pm 17.9 15.4 14.2 79 2.2 ESE 20 30 11 16 1022.0 1018.1 0.0
24/06:00pm 20.9 17.2 12.8 60 4.8 ENE 24 35 13 19 1021.4 1017.5 0.0
24/05:30pm 23.5 18.3 12.8 51 6.4 ENE 32 44 17 24 1020.2 1016.2 0.0
24/05:00pm 24.2 19.9 12.2 47 7.1 E 26 37 14 20 1020.0 1016.1 0.0
24/04:30pm 26.0 21.5 12.5 43 8.1 E 28 41 15 22 1019.9 1016.0 0.0
24/04:21pm 26.6 21.9 11.9 40 8.8 E 28 41 15 22 1019.8 1015.9 0.0
24/04:00pm 27.6 24.0 6.9 27 11.4 SSE 15 22 8 12 1019.8 1015.9 0.0
24/03:30pm 28.2 24.9 8.0 28 11.4 SW 15 26 8 14 1019.9 1016.0 0.0
24/03:00pm 27.6 23.5 8.5 30 10.8 SSW 20 30 11 16 1020.2 1016.2 0.0
24/02:30pm 27.3 24.3 9.2 32 10.4 SSW 15 22 8 12 1020.6 1016.7 0.0
24/02:00pm 26.7 23.4 9.5 34 9.9 SSW 17 24 9 13 1020.9 1017.0 0.0
24/01:30pm 25.7 23.1 9.5 36 9.3 SSE 13 24 7 13 1021.5 1017.6 0.0
24/01:00pm 24.5 23.3 10.4 41 8.1 SE 7 17 4 9 1021.8 1017.9 0.0
24/12:30pm 24.2 23.3 11.2 44 7.6 ESE 7 19 4 10 1022.1 1018.2 0.0
24/12:00pm 22.7 21.8 11.4 49 6.6 SE 7 13 4 7 1022.7 1018.8 0.0
24/11:30am 21.3 20.6 11.3 53 5.8 ENE 6 15 3 8 1023.1 1019.2 0.0
24/11:00am 19.9 18.6 11.4 58 4.9 NE 9 13 5 7 1023.6 1019.7 0.0

Other Formats:

Comma delimited format used in spreadsheet applications
http://www.bom.gov.au/fwo/IDN60801/IDN60801.94921.axf

JavaScript Object Notation format (JSON) in row-major order
http://www.bom.gov.au/fwo/IDN60801/IDN60801.94921.json